Time;durP1;ratioP1;P1;durP2;ratioP2;P2;SDS_P1;SDS_P2;PMS_P1;PMS_P2;Temp;Humidity;BMP_temperature;BMP_pressure;BME280_temperature;BME280_humidity;BME280_pressure;Samples;Min_cycle;Max_cycle;Signal;HPM_P1;HPM_P2
2022/07/31 00:02:06;;;;;;;;;;;;;;;23.50;53.92;99505.31;4305754;33;20047;-85
2022/07/31 00:04:34;;;;;;;;;;;;;;;23.39;54.57;99504.00;4302346;33;20758;-85
2022/07/31 00:07:01;;;;;;;;;;;;;;;23.29;54.84;99509.72;4296015;33;20044;-87
2022/07/31 00:09:28;;;;;;;;;;;;;;;23.42;54.31;99498.59;4296344;33;20039;-87
2022/07/31 00:12:16;;;;;;;;;;;;;;;23.23;54.92;99502.03;4282619;33;19989;-85
2022/07/31 00:14:43;;;;;;;;;;;;;;;23.53;54.17;99492.84;4297583;33;20024;-86
2022/07/31 00:17:10;;;;;;;;;;;;;;;23.43;54.60;99499.44;4297909;33;19997;-87
2022/07/31 00:19:37;;;;;;;;;;;;;;;23.53;54.03;99490.19;4303741;33;19980;-86
2022/07/31 00:22:05;;;;;;;;;;;;;;;23.28;54.78;99490.37;4297610;33;20044;-86
2022/07/31 00:24:32;;;;;;;;;;;;;;;23.28;54.70;99484.22;4298049;33;20932;-86
2022/07/31 00:26:59;;;;;;;;;;;;;;;23.37;54.52;99486.50;4297632;33;20048;-87
2022/07/31 00:29:27;;;;;;;;;;;;;;;23.32;54.44;99485.81;4296059;33;19992;-87
2022/07/31 00:31:53;;;;;;;;;;;;;;;23.37;54.27;99483.84;4297224;33;19984;-84
2022/07/31 00:34:21;;;;;;;;;;;;;;;23.42;53.99;99487.12;4297655;33;19973;-84
2022/07/31 00:36:47;;;;;;;;;;;;;;;23.45;54.04;99481.72;4299533;33;19993;-83
2022/07/31 00:39:14;;;;;;;;;;;;;;;23.42;54.16;99485.38;4303757;33;19976;-85
2022/07/31 00:41:45;;;;;;;;;;;;;;;23.50;53.63;99482.41;4284565;33;20411;-85
2022/07/31 00:44:12;;;;;;;;;;;;;;;23.40;53.92;99481.94;4286556;33;19976;-84
2022/07/31 00:46:39;;;;;;;;;;;;;;;23.39;54.38;99488.16;4303092;33;20048;-84
2022/07/31 00:49:08;;;;;;;;;;;;;;;23.35;54.58;99490.97;4296391;33;20036;-84
2022/07/31 00:51:36;;;;;;;;;;;;;;;23.24;54.48;99498.50;4304623;33;20023;-85
2022/07/31 00:54:04;;;;;;;;;;;;;;;23.16;55.24;99497.00;4297657;33;20016;-85
2022/07/31 00:56:31;;;;;;;;;;;;;;;23.28;54.94;99490.37;4304023;33;20018;-85
2022/07/31 00:58:58;;;;;;;;;;;;;;;22.97;55.34;99488.13;4298510;33;20403;-85
2022/07/31 01:01:25;;;;;;;;;;;;;;;23.15;54.42;99489.16;4287703;33;20023;-85
2022/07/31 01:03:52;;;;;;;;;;;;;;;23.18;54.12;99486.41;4302403;33;20008;-85
2022/07/31 01:06:19;;;;;;;;;;;;;;;23.26;53.97;99496.63;4312132;33;19990;-85
2022/07/31 01:08:47;;;;;;;;;;;;;;;23.24;54.35;99503.78;4308973;33;20078;-85
2022/07/31 01:11:20;;;;;;;;;;;;;;;23.28;53.67;99502.72;4291751;33;20497;-84
2022/07/31 01:13:51;;;;;;;;;;;;;;;23.16;53.94;99502.28;4296360;33;20015;-84
2022/07/31 01:16:19;;;;;;;;;;;;;;;23.26;53.42;99496.63;4303772;33;20024;-84
2022/07/31 01:18:46;;;;;;;;;;;;;;;23.19;53.68;99501.31;4297360;33;20338;-84
2022/07/31 01:21:18;;;;;;;;;;;;;;;23.25;53.36;99505.47;4295676;33;19984;-85
2022/07/31 01:23:53;;;;;;;;;;;;;;;23.15;53.36;99505.84;4305748;33;19980;-85
2022/07/31 01:26:34;;;;;;;;;;;;;;;23.22;52.80;99501.19;4297679;33;19996;-85
2022/07/31 01:29:04;;;;;;;;;;;;;;;22.51;55.56;99501.31;4305806;33;19988;-83
2022/07/31 01:31:42;;;;;;;;;;;;;;;22.73;54.23;99506.63;4310508;33;19988;-83
2022/07/31 01:34:39;;;;;;;;;;;;;;;22.79;54.48;99507.31;4308948;33;20299;-83
2022/07/31 01:37:16;;;;;;;;;;;;;;;22.65;54.84;99508.69;4293015;33;20018;-85
2022/07/31 01:39:45;;;;;;;;;;;;;;;22.72;54.63;99512.84;4304144;33;20061;-84
2022/07/31 01:42:12;;;;;;;;;;;;;;;22.72;54.17;99517.25;4245147;33;20282;-84
2022/07/31 01:44:41;;;;;;;;;;;;;;;23.07;53.13;99515.00;4296145;33;19991;-84
2022/07/31 01:47:09;;;;;;;;;;;;;;;23.16;53.03;99512.84;4296619;33;19985;-84
2022/07/31 01:49:36;;;;;;;;;;;;;;;23.12;53.32;99520.97;4290140;33;20717;-85
2022/07/31 01:52:02;;;;;;;;;;;;;;;23.06;53.89;99516.78;4281600;33;19985;-84
2022/07/31 01:54:31;;;;;;;;;;;;;;;22.39;55.42;99519.38;4283259;33;20016;-84
2022/07/31 01:56:58;;;;;;;;;;;;;;;22.85;54.21;99513.22;4286278;33;20036;-85
2022/07/31 01:59:25;;;;;;;;;;;;;;;23.13;52.78;99513.00;4286564;33;19988;-84
2022/07/31 02:01:55;;;;;;;;;;;;;;;23.03;53.80;99511.63;4281098;33;20008;-84
2022/07/31 02:04:22;;;;;;;;;;;;;;;23.05;53.03;99508.94;4284639;33;20028;-84
2022/07/31 02:06:49;;;;;;;;;;;;;;;23.18;52.64;99516.28;4287713;33;20362;-85
2022/07/31 02:09:16;;;;;;;;;;;;;;;23.13;52.88;99513.00;4290538;33;20006;-85
2022/07/31 02:11:44;;;;;;;;;;;;;;;22.86;53.71;99500.88;4280818;33;20003;-85
2022/07/31 02:14:31;;;;;;;;;;;;;;;23.04;53.12;99508.09;4283608;33;19981;-84
2022/07/31 02:16:59;;;;;;;;;;;;;;;22.78;54.38;99506.44;4287826;33;19974;-84
2022/07/31 02:19:33;;;;;;;;;;;;;;;22.71;54.01;99500.53;4281367;33;19997;-84
2022/07/31 02:22:00;;;;;;;;;;;;;;;23.05;52.67;99504.53;4282059;33;20929;-85
2022/07/31 02:24:27;;;;;;;;;;;;;;;22.98;52.63;99497.78;4290339;33;20359;-83
2022/07/31 02:26:54;;;;;;;;;;;;;;;22.63;53.63;99486.81;4296254;33;19980;-83
2022/07/31 02:29:21;;;;;;;;;;;;;;;22.90;52.96;99483.97;4293797;33;20001;-83
2022/07/31 02:31:49;;;;;;;;;;;;;;;22.91;52.98;99480.41;4290488;33;20027;-83
2022/07/31 02:34:29;;;;;;;;;;;;;;;22.75;54.16;99470.50;4282073;33;20021;-83
2022/07/31 02:36:57;;;;;;;;;;;;;;;22.77;53.40;99472.19;4282419;33;20402;-82
2022/07/31 02:39:25;;;;;;;;;;;;;;;22.96;52.90;99473.22;4263127;33;20015;-82
2022/07/31 02:41:58;;;;;;;;;;;;;;;22.89;53.01;99472.56;4271584;33;20000;-84
2022/07/31 02:44:25;;;;;;;;;;;;;;;22.44;54.47;99473.47;4263716;33;19985;-84
2022/07/31 02:46:53;;;;;;;;;;;;;;;22.76;53.74;99460.78;4268779;33;20007;-83
2022/07/31 02:49:20;;;;;;;;;;;;;;;22.94;52.66;99469.75;4257195;33;20021;-82
2022/07/31 02:51:48;;;;;;;;;;;;;;;23.06;52.03;99466.63;4263962;33;20011;-84
2022/07/31 02:54:15;;;;;;;;;;;;;;;22.87;52.35;99463.00;4262877;33;20006;-84
2022/07/31 02:56:42;;;;;;;;;;;;;;;22.61;53.19;99467.53;4266162;33;20012;-83
2022/07/31 02:59:09;;;;;;;;;;;;;;;22.51;53.25;99477.56;4266370;33;19993;-84
2022/07/31 03:01:37;;;;;;;;;;;;;;;22.32;53.99;99470.44;4262528;33;20100;-85
2022/07/31 03:04:05;;;;;;;;;;;;;;;22.56;53.22;99474.78;4254886;33;19996;-85
2022/07/31 03:06:31;;;;;;;;;;;;;;;22.67;52.85;99475.19;4266606;33;20056;-85
2022/07/31 03:08:58;;;;;;;;;;;;;;;22.80;52.56;99477.34;4261370;33;19981;-85
2022/07/31 03:11:25;;;;;;;;;;;;;;;22.70;52.29;99483.00;4255093;33;20321;-85
2022/07/31 03:13:53;;;;;;;;;;;;;;;22.63;52.46;99486.81;4248524;33;20185;-85
2022/07/31 03:16:20;;;;;;;;;;;;;;;22.61;52.55;99472.81;4262213;33;19989;-85
2022/07/31 03:18:47;;;;;;;;;;;;;;;22.68;52.22;99474.28;4283793;33;20029;-83
2022/07/31 03:21:14;;;;;;;;;;;;;;;22.36;53.46;99479.94;4289058;33;20048;-83
2022/07/31 03:23:40;;;;;;;;;;;;;;;22.64;52.36;99477.09;4282917;33;20020;-84
2022/07/31 03:26:08;;;;;;;;;;;;;;;22.38;53.23;99472.84;4282940;33;20048;-84
2022/07/31 03:28:34;;;;;;;;;;;;;;;22.25;54.36;99475.94;4286387;33;20004;-84
2022/07/31 03:31:02;;;;;;;;;;;;;;;22.42;53.55;99471.78;4288132;33;20379;-84
2022/07/31 03:33:29;;;;;;;;;;;;;;;22.46;53.62;99468.13;4291942;33;20258;-84
2022/07/31 03:35:57;;;;;;;;;;;;;;;22.44;54.03;99475.25;4283660;33;19992;-84
2022/07/31 03:38:25;;;;;;;;;;;;;;;22.10;55.17;99481.75;4283791;33;19989;-84
2022/07/31 03:41:10;;;;;;;;;;;;;;;22.27;54.87;99466.19;4285617;33;19993;-84
2022/07/31 03:43:36;;;;;;;;;;;;;;;22.29;54.86;99467.00;4290774;33;20000;-83
2022/07/31 03:46:14;;;;;;;;;;;;;;;22.61;54.05;99462.25;4289985;33;20052;-85
2022/07/31 03:48:41;;;;;;;;;;;;;;;22.65;53.36;99453.28;4282022;33;20001;-83
2022/07/31 03:51:08;;;;;;;;;;;;;;;22.67;53.60;99459.37;4283772;33;20000;-84
2022/07/31 03:53:35;;;;;;;;;;;;;;;22.57;54.15;99465.94;4291052;33;19980;-83
2022/07/31 03:56:02;;;;;;;;;;;;;;;22.53;53.56;99464.34;4291437;33;20401;-84
2022/07/31 03:58:29;;;;;;;;;;;;;;;22.43;54.30;99473.50;4305326;33;20405;-84
2022/07/31 04:00:57;;;;;;;;;;;;;;;22.75;52.93;99478.41;4278627;33;19995;-85
2022/07/31 04:03:29;;;;;;;;;;;;;;;22.50;53.77;99475.87;4270095;33;20112;-84
2022/07/31 04:05:57;;;;;;;;;;;;;;;22.65;53.34;99470.91;4266700;33;19993;-84
2022/07/31 04:08:24;;;;;;;;;;;;;;;22.77;52.92;99466.91;4271353;33;19984;-84
2022/07/31 04:10:52;;;;;;;;;;;;;;;22.10;55.53;99470.34;4275775;33;19989;-84
2022/07/31 04:13:19;;;;;;;;;;;;;;;22.59;53.55;99469.38;4273292;33;20040;-84
2022/07/31 04:15:46;;;;;;;;;;;;;;;22.33;54.11;99472.16;4271832;33;20324;-84
2022/07/31 04:18:14;;;;;;;;;;;;;;;22.45;53.01;99476.97;4277327;33;20028;-84
2022/07/31 04:20:40;;;;;;;;;;;;;;;22.20;54.31;99483.16;4269077;33;20043;-85
2022/07/31 04:23:08;;;;;;;;;;;;;;;22.49;53.50;99483.81;4273839;33;19988;-84
2022/07/31 04:25:36;;;;;;;;;;;;;;;22.31;54.17;99477.50;4282091;33;20008;-84
2022/07/31 04:28:04;;;;;;;;;;;;;;;22.38;54.14;99480.75;4283275;33;20406;-83
2022/07/31 04:30:31;;;;;;;;;;;;;;;22.20;54.25;99483.16;4279736;33;20040;-83
2022/07/31 04:32:58;;;;;;;;;;;;;;;22.27;53.72;99487.31;4275005;33;20033;-84
2022/07/31 04:35:25;;;;;;;;;;;;;;;22.28;53.39;99486.38;4255685;33;20033;-83
2022/07/31 04:37:53;;;;;;;;;;;;;;;22.22;53.99;99483.97;4270434;33;20414;-85
2022/07/31 04:40:20;;;;;;;;;;;;;;;22.07;54.11;99487.12;4277484;33;20000;-85
2022/07/31 04:42:47;;;;;;;;;;;;;;;22.14;53.73;99483.34;4276637;33;20327;-85
2022/07/31 04:45:14;;;;;;;;;;;;;;;21.83;54.74;99479.22;4276870;33;19984;-83
2022/07/31 04:47:41;;;;;;;;;;;;;;;22.09;54.03;99477.41;4270376;33;20004;-84
2022/07/31 04:50:08;;;;;;;;;;;;;;;22.32;53.18;99475.72;4275366;33;19988;-84
2022/07/31 04:52:36;;;;;;;;;;;;;;;21.72;55.23;99478.72;4268872;33;20001;-84
2022/07/31 04:55:04;;;;;;;;;;;;;;;22.13;54.20;99471.09;4267663;33;19989;-84
2022/07/31 04:57:30;;;;;;;;;;;;;;;22.00;54.59;99472.47;4268845;33;19997;-84
2022/07/31 04:59:58;;;;;;;;;;;;;;;21.67;55.77;99474.53;4274613;33;20067;-83
2022/07/31 05:02:27;;;;;;;;;;;;;;;21.91;54.73;99475.44;4271768;33;19969;-83
2022/07/31 05:04:54;;;;;;;;;;;;;;;21.96;54.56;99478.78;4275451;33;19997;-84
2022/07/31 05:07:24;;;;;;;;;;;;;;;22.09;54.00;99479.19;4282489;33;20041;-85
2022/07/31 05:09:55;;;;;;;;;;;;;;;21.94;54.46;99477.94;4280998;33;20016;-83
2022/07/31 05:12:22;;;;;;;;;;;;;;;22.26;53.34;99482.06;4262136;33;20036;-83
2022/07/31 05:14:49;;;;;;;;;;;;;;;22.13;54.01;99475.50;4264201;33;20353;-83
2022/07/31 05:17:16;;;;;;;;;;;;;;;21.97;54.96;99483.13;4288760;33;19984;-83
2022/07/31 05:19:44;;;;;;;;;;;;;;;21.96;54.97;99479.62;4282880;33;20320;-84
2022/07/31 05:22:14;;;;;;;;;;;;;;;22.16;54.29;99476.28;4274223;33;19985;-86
2022/07/31 05:24:44;;;;;;;;;;;;;;;21.83;55.92;99484.47;4282736;33;19981;-86
2022/07/31 05:27:11;;;;;;;;;;;;;;;22.02;56.38;99486.47;4284964;33;20342;-83
2022/07/31 05:29:38;;;;;;;;;;;;;;;22.00;56.62;99486.50;4288344;33;19999;-82
2022/07/31 05:32:05;;;;;;;;;;;;;;;22.07;56.74;99487.12;4283131;33;19995;-82
2022/07/31 05:34:32;;;;;;;;;;;;;;;21.77;57.79;99484.69;4285046;33;20309;-84
2022/07/31 05:37:00;;;;;;;;;;;;;;;22.04;56.63;99481.97;4290927;33;19995;-83
2022/07/31 05:39:27;;;;;;;;;;;;;;;22.12;56.09;99490.47;4292827;33;20011;-84
2022/07/31 05:41:57;;;;;;;;;;;;;;;21.36;59.19;99486.12;4291679;33;19977;-84
2022/07/31 05:44:24;;;;;;;;;;;;;;;21.63;58.23;99491.34;4290937;33;19996;-84
2022/07/31 05:46:51;;;;;;;;;;;;;;;21.45;59.26;99492.88;4284675;33;20448;-85
2022/07/31 05:49:17;;;;;;;;;;;;;;;21.67;58.72;99498.25;3692296;33;10000661;-85
2022/07/31 05:51:45;;;;;;;;;;;;;;;21.83;57.03;99495.03;4296244;33;19984;-84
2022/07/31 05:54:12;;;;;;;;;;;;;;;21.96;56.57;99494.59;4297482;33;20014;-83
2022/07/31 05:56:47;;;;;;;;;;;;;;;21.89;57.34;99503.59;4300079;33;20012;-82
2022/07/31 05:59:14;;;;;;;;;;;;;;;22.04;56.00;99497.78;4299644;33;20780;-82
2022/07/31 06:01:41;;;;;;;;;;;;;;;21.72;57.79;99505.06;4299183;33;19991;-81
2022/07/31 06:04:09;;;;;;;;;;;;;;;21.94;56.41;99513.06;4305179;33;19988;-82
2022/07/31 06:06:37;;;;;;;;;;;;;;;21.73;57.20;99505.91;4305169;33;19994;-85
2022/07/31 06:09:03;;;;;;;;;;;;;;;21.67;57.99;99508.78;4299406;33;20010;-83
2022/07/31 06:11:31;;;;;;;;;;;;;;;22.14;55.44;99517.62;4306620;33;19988;-83
2022/07/31 06:13:58;;;;;;;;;;;;;;;21.95;56.54;99503.38;4311420;33;19984;-83
2022/07/31 06:16:25;;;;;;;;;;;;;;;22.06;56.34;99509.12;4310431;33;19980;-84
2022/07/31 06:18:52;;;;;;;;;;;;;;;21.85;56.17;99502.84;4306706;33;20048;-86
2022/07/31 06:21:19;;;;;;;;;;;;;;;21.70;56.99;99509.53;4301469;33;20007;-84
2022/07/31 06:23:45;;;;;;;;;;;;;;;21.91;56.54;99512.31;4296917;33;19999;-85
2022/07/31 06:26:12;;;;;;;;;;;;;;;21.99;56.56;99526.09;4297060;33;20278;-82
2022/07/31 06:28:40;;;;;;;;;;;;;;;21.90;56.37;99526.44;4304144;33;19988;-81
2022/07/31 06:31:16;;;;;;;;;;;;;;;21.35;59.17;99524.75;4296772;33;19989;-81
2022/07/31 06:33:43;;;;;;;;;;;;;;;21.70;58.75;99522.72;4298014;33;19996;-82
2022/07/31 06:36:15;;;;;;;;;;;;;;;21.57;58.70;99522.28;4308567;33;20035;-82
2022/07/31 06:38:44;;;;;;;;;;;;;;;21.81;57.56;99520.56;4305447;33;19977;-82
2022/07/31 06:41:43;;;;;;;;;;;;;;;21.52;59.35;99528.59;4299733;33;20035;-80
2022/07/31 06:44:18;;;;;;;;;;;;;;;21.72;58.52;99527.91;4298412;33;19987;-81
2022/07/31 06:46:49;;;;;;;;;;;;;;;21.78;58.36;99531.19;4293894;33;20548;-80
2022/07/31 06:49:19;;;;;;;;;;;;;;;21.82;57.42;99530.19;4296343;33;19980;-81
2022/07/31 06:51:47;;;;;;;;;;;;;;;21.91;57.94;99539.53;4298185;33;19995;-82
2022/07/31 06:54:13;;;;;;;;;;;;;;;21.82;57.79;99534.56;4303089;33;20052;-80
2022/07/31 06:56:41;;;;;;;;;;;;;;;21.94;57.39;99538.56;4296207;33;19999;-82
2022/07/31 06:59:07;;;;;;;;;;;;;;;22.00;56.89;99533.09;4294850;33;20020;-84
2022/07/31 07:01:34;;;;;;;;;;;;;;;22.16;56.06;99536.91;4302816;33;20007;-83
2022/07/31 07:04:01;;;;;;;;;;;;;;;22.08;56.25;99536.31;4296446;33;20007;-82
2022/07/31 07:06:28;;;;;;;;;;;;;;;21.72;57.27;99534.03;4303681;33;19999;-84
2022/07/31 07:08:55;;;;;;;;;;;;;;;21.99;56.76;99523.47;4297681;33;20428;-83
2022/07/31 07:11:22;;;;;;;;;;;;;;;21.70;57.67;99525.34;4302382;33;20059;-82
2022/07/31 07:13:49;;;;;;;;;;;;;;;21.91;56.29;99517.59;4295691;33;19996;-81
2022/07/31 07:16:17;;;;;;;;;;;;;;;21.85;55.90;99523.06;4311295;33;19973;-81
2022/07/31 07:18:44;;;;;;;;;;;;;;;21.74;56.96;99521.69;4298720;33;19981;-82
2022/07/31 07:21:11;;;;;;;;;;;;;;;21.97;57.47;99525.28;4161353;33;20020;-80
2022/07/31 07:23:38;;;;;;;;;;;;;;;22.08;56.05;99523.13;4274058;33;20008;-79
2022/07/31 07:26:05;;;;;;;;;;;;;;;22.27;54.98;99524.22;4281639;33;19981;-79
2022/07/31 07:28:32;;;;;;;;;;;;;;;22.00;56.62;99522.53;4287964;33;20004;-79
2022/07/31 07:30:59;;;;;;;;;;;;;;;22.25;55.25;99515.50;4283413;33;19984;-79
2022/07/31 07:33:29;;;;;;;;;;;;;;;22.21;54.96;99505.97;4289589;33;20051;-81
2022/07/31 07:36:07;;;;;;;;;;;;;;;22.21;54.98;99511.25;4268282;33;20363;-79
2022/07/31 07:38:53;;;;;;;;;;;;;;;22.31;55.40;99510.91;4281610;33;19992;-78
2022/07/31 07:41:22;;;;;;;;;;;;;;;22.61;53.80;99509.75;4286517;33;20037;-78
2022/07/31 07:43:49;;;;;;;;;;;;;;;22.43;53.85;99513.06;4289109;33;20576;-82
2022/07/31 07:46:19;;;;;;;;;;;;;;;22.40;54.47;99510.53;4290030;33;20024;-79
2022/07/31 07:48:49;;;;;;;;;;;;;;;22.46;53.35;99507.69;4296757;33;19988;-79
2022/07/31 07:51:17;;;;;;;;;;;;;;;22.59;53.68;99516.00;4296572;33;19996;-78
2022/07/31 07:53:45;;;;;;;;;;;;;;;22.80;52.72;99519.59;4292751;33;20643;-80
2022/07/31 07:56:14;;;;;;;;;;;;;;;22.81;52.40;99518.66;4274641;33;20049;-78
2022/07/31 07:58:42;;;;;;;;;;;;;;;22.72;53.36;99511.97;4268285;33;20009;-78
2022/07/31 08:01:11;;;;;;;;;;;;;;;22.68;52.81;99511.22;4269152;33;20025;-78
2022/07/31 08:03:39;;;;;;;;;;;;;;;22.74;53.48;99505.69;4268298;33;20317;-78
2022/07/31 08:06:18;;;;;;;;;;;;;;;23.11;52.31;99519.25;4266772;33;19997;-78
2022/07/31 08:08:45;;;;;;;;;;;;;;;22.99;52.38;99515.31;4268884;33;19985;-78
2022/07/31 08:11:15;;;;;;;;;;;;;;;23.48;51.65;99521.22;4086568;33;5001339;-78
2022/07/31 08:13:48;;;;;;;;;;;;;;;23.44;51.66;99527.56;4279398;33;20014;-78
2022/07/31 08:16:20;;;;;;;;;;;;;;;23.65;52.19;99526.66;4300966;33;19976;-79
2022/07/31 08:18:48;;;;;;;;;;;;;;;23.83;49.63;99526.81;4300311;33;20406;-79
2022/07/31 08:21:15;;;;;;;;;;;;;;;23.74;49.54;99541.31;4301035;33;19984;-80
2022/07/31 08:23:42;;;;;;;;;;;;;;;23.59;50.29;99542.78;4290503;33;20020;-78
2022/07/31 08:26:09;;;;;;;;;;;;;;;23.73;49.78;99544.00;4311282;33;20275;-79
2022/07/31 08:28:37;;;;;;;;;;;;;;;23.45;50.54;99539.84;4307577;33;19977;-80
2022/07/31 08:31:04;;;;;;;;;;;;;;;23.74;49.32;99541.31;4303692;33;20032;-77
2022/07/31 08:33:34;;;;;;;;;;;;;;;23.66;50.18;99544.22;4298022;33;19992;-78
2022/07/31 08:36:01;;;;;;;;;;;;;;;23.86;49.28;99545.19;4305138;33;19991;-77
2022/07/31 08:38:28;;;;;;;;;;;;;;;24.12;48.90;99537.00;4298145;33;19995;-78
2022/07/31 08:40:56;;;;;;;;;;;;;;;24.14;48.64;99528.97;4300199;33;20024;-78
2022/07/31 08:43:24;;;;;;;;;;;;;;;23.89;50.15;99539.78;4302606;33;20023;-78
2022/07/31 08:46:11;;;;;;;;;;;;;;;24.53;48.60;99536.06;4296282;33;20024;-78
2022/07/31 08:48:39;;;;;;;;;;;;;;;24.91;45.48;99531.62;4296695;33;20002;-79
2022/07/31 08:51:07;;;;;;;;;;;;;;;24.26;47.05;99540.81;4295392;33;20011;-78
2022/07/31 08:53:36;;;;;;;;;;;;;;;24.32;47.84;99548.47;4295078;33;19999;-78
2022/07/31 08:56:04;;;;;;;;;;;;;;;24.27;47.08;99555.75;4298297;33;20277;-79
2022/07/31 08:58:31;;;;;;;;;;;;;;;24.21;47.86;99561.31;4303211;33;19976;-78
2022/07/31 09:01:07;;;;;;;;;;;;;;;23.96;48.72;99551.78;4295826;33;20035;-78
2022/07/31 09:03:34;;;;;;;;;;;;;;;24.07;46.87;99556.63;4303895;33;20326;-78
2022/07/31 09:06:03;;;;;;;;;;;;;;;23.78;47.68;99568.47;4297112;33;20314;-78
2022/07/31 09:08:34;;;;;;;;;;;;;;;23.44;48.47;99546.06;4297567;33;20000;-78
2022/07/31 09:11:06;;;;;;;;;;;;;;;23.22;48.52;99559.28;4299816;33;19976;-78
2022/07/31 09:13:34;;;;;;;;;;;;;;;23.27;48.85;99556.47;4302320;33;20051;-78
2022/07/31 09:16:05;;;;;;;;;;;;;;;23.24;48.88;99556.59;4299627;33;20761;-78
2022/07/31 09:18:32;;;;;;;;;;;;;;;23.14;48.98;99564.03;4303152;33;20043;-78
2022/07/31 09:21:00;;;;;;;;;;;;;;;22.93;49.30;99568.31;4296238;33;20008;-78
2022/07/31 09:23:28;;;;;;;;;;;;;;;22.40;51.05;99574.72;4298325;33;20062;-78
2022/07/31 09:25:59;;;;;;;;;;;;;;;22.49;52.74;99574.41;4303533;33;20018;-78
2022/07/31 09:28:38;;;;;;;;;;;;;;;22.40;51.68;99585.28;4286813;33;20309;-78
2022/07/31 09:31:06;;;;;;;;;;;;;;;22.65;51.23;99585.22;4300569;33;19988;-78
2022/07/31 09:33:37;;;;;;;;;;;;;;;22.51;51.55;99574.31;4297427;33;19980;-78
2022/07/31 09:36:12;;;;;;;;;;;;;;;22.53;51.05;99575.13;4297838;33;19972;-78
2022/07/31 09:38:43;;;;;;;;;;;;;;;22.42;52.00;99579.94;4296038;33;20004;-78
2022/07/31 09:41:14;;;;;;;;;;;;;;;22.44;51.83;99564.94;4301431;33;19992;-78
2022/07/31 09:44:04;;;;;;;;;;;;;;;22.55;51.41;99562.72;4298313;33;20002;-78
2022/07/31 09:46:47;;;;;;;;;;;;;;;22.50;51.64;99559.44;4280309;33;19993;-78
2022/07/31 09:49:14;;;;;;;;;;;;;;;22.59;51.33;99564.34;4302449;33;19984;-78
2022/07/31 09:51:43;;;;;;;;;;;;;;;22.67;50.51;99551.72;4297121;33;19977;-78
2022/07/31 09:54:23;;;;;;;;;;;;;;;22.66;50.90;99557.94;4300210;33;20036;-78
2022/07/31 09:56:51;;;;;;;;;;;;;;;22.85;50.47;99559.87;4302146;33;20488;-78
2022/07/31 09:59:19;;;;;;;;;;;;;;;22.85;50.16;99554.59;4308016;33;20353;-78
2022/07/31 10:01:47;;;;;;;;;;;;;;;23.02;49.55;99568.00;4303321;33;20056;-78
2022/07/31 10:04:18;;;;;;;;;;;;;;;23.27;50.56;99567.03;4295969;33;19989;-78
2022/07/31 10:06:49;;;;;;;;;;;;;;;23.19;49.21;99554.97;4296221;33;19968;-78
2022/07/31 10:09:20;;;;;;;;;;;;;;;23.11;49.50;99572.06;4302974;33;20048;-78
2022/07/31 10:11:48;;;;;;;;;;;;;;;22.84;49.91;99555.47;4295841;33;20433;-78
2022/07/31 10:14:30;;;;;;;;;;;;;;;23.26;49.88;99575.84;4297391;33;19980;-78
2022/07/31 10:16:59;;;;;;;;;;;;;;;22.82;50.07;99559.97;4304002;33;20460;-78
2022/07/31 10:19:28;;;;;;;;;;;;;;;23.05;49.66;99548.56;4296197;33;20358;-78
2022/07/31 10:22:02;;;;;;;;;;;;;;;23.40;49.00;99553.25;4296208;33;20047;-79
2022/07/31 10:24:30;;;;;;;;;;;;;;;22.85;50.48;99550.16;4295852;33;19984;-79
2022/07/31 10:26:58;;;;;;;;;;;;;;;23.18;49.03;99553.25;4300677;33;19977;-79
2022/07/31 10:29:34;;;;;;;;;;;;;;;23.27;49.30;99556.47;4311078;33;19996;-78
2022/07/31 10:32:02;;;;;;;;;;;;;;;23.14;50.10;99562.25;4310120;33;20035;-80
2022/07/31 10:34:31;;;;;;;;;;;;;;;22.91;49.83;99559.59;4302122;33;19993;-78
2022/07/31 10:37:05;;;;;;;;;;;;;;;23.08;49.20;99562.50;4300712;33;20051;-77
2022/07/31 10:39:41;;;;;;;;;;;;;;;23.18;49.43;99558.56;4309487;33;20033;-77
2022/07/31 10:42:24;;;;;;;;;;;;;;;22.86;50.71;99557.16;4291562;33;20002;-77
2022/07/31 10:44:54;;;;;;;;;;;;;;;23.07;49.52;99560.78;4302615;33;20003;-78
2022/07/31 10:47:22;;;;;;;;;;;;;;;22.84;50.62;99566.03;4309459;33;20357;-78
2022/07/31 10:49:53;;;;;;;;;;;;;;;22.90;49.46;99568.44;4310895;33;19976;-78
2022/07/31 10:52:29;;;;;;;;;;;;;;;22.98;49.08;99555.84;4305665;33;20361;-78
2022/07/31 10:55:13;;;;;;;;;;;;;;;23.16;49.07;99570.94;4303259;33;20050;-77
2022/07/31 10:57:42;;;;;;;;;;;;;;;23.04;49.76;99586.41;4213268;33;5001977;-78
2022/07/31 11:00:24;;;;;;;;;;;;;;;23.13;48.80;99565.81;4304082;33;20002;-78
2022/07/31 11:02:56;;;;;;;;;;;;;;;23.27;48.68;99572.31;4309724;33;20353;-78
2022/07/31 11:05:26;;;;;;;;;;;;;;;23.13;50.39;99581.66;4310530;33;19981;-78
2022/07/31 11:08:01;;;;;;;;;;;;;;;23.53;47.13;99589.75;4307533;33;20043;-77
2022/07/31 11:10:29;;;;;;;;;;;;;;;23.64;45.78;99583.09;4310252;33;20024;-78
2022/07/31 11:12:59;;;;;;;;;;;;;;;23.50;46.35;99596.00;4309246;33;20014;-78
2022/07/31 11:15:27;;;;;;;;;;;;;;;23.37;46.68;99594.78;4305404;33;20032;-78
2022/07/31 11:17:56;;;;;;;;;;;;;;;23.62;46.63;99610.50;4307459;33;19988;-78
2022/07/31 11:20:46;;;;;;;;;;;;;;;23.66;45.65;99612.94;4312242;33;20735;-78
2022/07/31 11:23:15;;;;;;;;;;;;;;;23.59;46.61;99606.19;4310243;33;19980;-78
2022/07/31 11:25:43;;;;;;;;;;;;;;;23.56;46.13;99611.63;4309928;33;19979;-78
2022/07/31 11:28:11;;;;;;;;;;;;;;;23.77;45.80;99614.31;4310599;33;19979;-78
2022/07/31 11:30:57;;;;;;;;;;;;;;;23.93;45.47;99619.81;4306362;33;20036;-78
2022/07/31 11:33:31;;;;;;;;;;;;;;;24.17;45.40;99613.47;4306679;33;20008;-77
2022/07/31 11:36:15;;;;;;;;;;;;;;;24.23;44.47;99622.94;4307436;33;20340;-78
2022/07/31 11:38:42;;;;;;;;;;;;;;;24.04;44.65;99618.44;4303050;33;20410;-78
2022/07/31 11:41:13;;;;;;;;;;;;;;;23.71;46.25;99622.50;4284250;33;19995;-79
2022/07/31 11:43:48;;;;;;;;;;;;;;;24.13;44.86;99633.06;4301539;33;19989;-79
2022/07/31 11:46:41;;;;;;;;;;;;;;;24.26;44.32;99628.97;4302409;33;20343;-78
2022/07/31 11:49:08;;;;;;;;;;;;;;;24.19;45.01;99637.25;4298836;33;19995;-78
2022/07/31 11:51:35;;;;;;;;;;;;;;;24.30;43.44;99645.56;4296742;33;19996;-78
2022/07/31 11:54:01;;;;;;;;;;;;;;;24.29;43.14;99612.09;4298141;33;20039;-79
2022/07/31 11:56:28;;;;;;;;;;;;;;;23.92;44.67;99634.81;4296024;33;19972;-78
2022/07/31 11:58:56;;;;;;;;;;;;;;;23.80;45.41;99620.34;4305778;33;19991;-78
2022/07/31 12:01:27;;;;;;;;;;;;;;;23.82;45.75;99638.78;4307390;33;19968;-78
2022/07/31 12:03:56;;;;;;;;;;;;;;;23.69;44.41;99633.16;4307141;33;19996;-78
2022/07/31 12:06:34;;;;;;;;;;;;;;;23.50;44.51;99626.84;4297793;33;19980;-80
2022/07/31 12:09:02;;;;;;;;;;;;;;;23.55;44.30;99625.75;4297303;33;19992;-79
2022/07/31 12:11:30;;;;;;;;;;;;;;;23.27;46.66;99630.44;4271392;33;20279;-79
2022/07/31 12:13:58;;;;;;;;;;;;;;;23.58;45.48;99625.63;4285523;33;19988;-79
2022/07/31 12:16:25;;;;;;;;;;;;;;;23.57;45.98;99625.69;4285534;33;19996;-79
2022/07/31 12:18:53;;;;;;;;;;;;;;;23.79;44.53;99623.03;4288815;33;19989;-79
2022/07/31 12:21:28;;;;;;;;;;;;;;;23.79;45.42;99628.34;4256412;33;792195;-79
2022/07/31 12:23:57;;;;;;;;;;;;;;;24.12;43.82;99626.91;4288581;33;19999;-79
2022/07/31 12:26:31;;;;;;;;;;;;;;;24.19;43.55;99642.53;4285781;33;20135;-79
2022/07/31 12:28:59;;;;;;;;;;;;;;;23.94;43.69;99627.69;4288475;33;19994;-78
2022/07/31 12:31:26;;;;;;;;;;;;;;;23.90;43.74;99636.69;4286718;33;19988;-79
2022/07/31 12:33:53;;;;;;;;;;;;;;;23.78;44.89;99640.69;4286031;33;20006;-79
2022/07/31 12:36:20;;;;;;;;;;;;;;;23.53;44.84;99642.59;4281574;33;20046;-79
2022/07/31 12:39:00;;;;;;;;;;;;;;;23.65;44.63;99650.87;4281911;33;20661;-79
2022/07/31 12:41:28;;;;;;;;;;;;;;;23.95;43.62;99642.63;4289035;33;20024;-80
2022/07/31 12:43:55;;;;;;;;;;;;;;;24.10;43.37;99649.91;4279712;33;20304;-80
2022/07/31 12:46:22;;;;;;;;;;;;;;;23.75;44.61;99653.19;4287508;33;20024;-78
2022/07/31 12:48:49;;;;;;;;;;;;;;;23.98;43.98;99654.88;4271575;33;19989;-78
2022/07/31 12:51:18;;;;;;;;;;;;;;;23.55;44.93;99646.91;4281570;33;20003;-79
2022/07/31 12:54:06;;;;;;;;;;;;;;;23.76;44.30;99649.59;4289122;33;19993;-79
2022/07/31 12:56:34;;;;;;;;;;;;;;;23.76;44.00;99645.19;4282418;33;19981;-79
2022/07/31 12:59:01;;;;;;;;;;;;;;;23.85;43.77;99641.31;4289219;33;19992;-78